sensor_id;sensor_type;location;lat;lon;timestamp;P1;durP1;ratioP1;P2;durP2;ratioP2
68365;SDS011;55283;51.466;5.478;2022-07-10T00:01:21;2.47;;;1.43;;
68365;SDS011;55283;51.466;5.478;2022-07-10T00:03:47;2.97;;;1.60;;
68365;SDS011;55283;51.466;5.478;2022-07-10T00:06:14;3.25;;;1.58;;
68365;SDS011;55283;51.466;5.478;2022-07-10T00:08:40;3.17;;;1.35;;
68365;SDS011;55283;51.466;5.478;2022-07-10T00:11:07;2.40;;;1.50;;
68365;SDS011;55283;51.466;5.478;2022-07-10T00:13:33;3.72;;;1.40;;
68365;SDS011;55283;51.466;5.478;2022-07-10T00:15:59;4.38;;;1.50;;
68365;SDS011;55283;51.466;5.478;2022-07-10T00:18:26;2.05;;;1.30;;
68365;SDS011;55283;51.466;5.478;2022-07-10T00:20:52;3.70;;;1.50;;
68365;SDS011;55283;51.466;5.478;2022-07-10T00:23:18;2.37;;;1.50;;
68365;SDS011;55283;51.466;5.478;2022-07-10T00:25:43;2.35;;;1.40;;
68365;SDS011;55283;51.466;5.478;2022-07-10T00:28:08;3.57;;;1.50;;
68365;SDS011;55283;51.466;5.478;2022-07-10T00:30:34;3.97;;;1.40;;
68365;SDS011;55283;51.466;5.478;2022-07-10T00:32:59;2.93;;;1.33;;
68365;SDS011;55283;51.466;5.478;2022-07-10T00:35:25;2.27;;;1.20;;
68365;SDS011;55283;51.466;5.478;2022-07-10T00:37:50;4.18;;;1.40;;
68365;SDS011;55283;51.466;5.478;2022-07-10T00:40:15;4.03;;;1.43;;
68365;SDS011;55283;51.466;5.478;2022-07-10T00:42:41;3.70;;;1.40;;
68365;SDS011;55283;51.466;5.478;2022-07-10T00:45:06;2.07;;;1.30;;
68365;SDS011;55283;51.466;5.478;2022-07-10T00:47:32;3.50;;;1.70;;
68365;SDS011;55283;51.466;5.478;2022-07-10T00:49:58;3.30;;;1.30;;
68365;SDS011;55283;51.466;5.478;2022-07-10T00:52:23;2.43;;;1.40;;
68365;SDS011;55283;51.466;5.478;2022-07-10T00:54:49;2.90;;;1.45;;
68365;SDS011;55283;51.466;5.478;2022-07-10T00:57:18;3.30;;;1.40;;
68365;SDS011;55283;51.466;5.478;2022-07-10T00:59:44;2.58;;;1.48;;
68365;SDS011;55283;51.466;5.478;2022-07-10T01:02:10;3.20;;;1.40;;
68365;SDS011;55283;51.466;5.478;2022-07-10T01:04:37;3.50;;;1.27;;
68365;SDS011;55283;51.466;5.478;2022-07-10T01:07:03;2.38;;;1.40;;
68365;SDS011;55283;51.466;5.478;2022-07-10T01:09:29;2.00;;;1.20;;
68365;SDS011;55283;51.466;5.478;2022-07-10T01:11:55;2.47;;;1.40;;
68365;SDS011;55283;51.466;5.478;2022-07-10T01:14:21;3.58;;;1.63;;
68365;SDS011;55283;51.466;5.478;2022-07-10T01:16:47;3.90;;;1.50;;
68365;SDS011;55283;51.466;5.478;2022-07-10T01:19:14;2.58;;;1.50;;
68365;SDS011;55283;51.466;5.478;2022-07-10T01:21:39;3.47;;;1.70;;
68365;SDS011;55283;51.466;5.478;2022-07-10T01:24:08;2.00;;;1.20;;
68365;SDS011;55283;51.466;5.478;2022-07-10T01:26:36;2.70;;;1.40;;
68365;SDS011;55283;51.466;5.478;2022-07-10T01:29:03;2.05;;;1.38;;
68365;SDS011;55283;51.466;5.478;2022-07-10T01:31:30;2.40;;;1.30;;
68365;SDS011;55283;51.466;5.478;2022-07-10T01:33:55;3.38;;;1.30;;
68365;SDS011;55283;51.466;5.478;2022-07-10T01:36:21;2.87;;;1.40;;
68365;SDS011;55283;51.466;5.478;2022-07-10T01:38:47;2.88;;;1.50;;
68365;SDS011;55283;51.466;5.478;2022-07-10T01:41:15;2.13;;;1.50;;
68365;SDS011;55283;51.466;5.478;2022-07-10T01:43:41;3.53;;;1.50;;
68365;SDS011;55283;51.466;5.478;2022-07-10T01:46:07;2.65;;;1.50;;
68365;SDS011;55283;51.466;5.478;2022-07-10T01:48:36;3.13;;;1.40;;
68365;SDS011;55283;51.466;5.478;2022-07-10T01:51:02;2.60;;;1.40;;
68365;SDS011;55283;51.466;5.478;2022-07-10T01:53:28;2.20;;;1.30;;
68365;SDS011;55283;51.466;5.478;2022-07-10T01:55:54;2.80;;;1.60;;
68365;SDS011;55283;51.466;5.478;2022-07-10T01:58:20;2.00;;;1.42;;
68365;SDS011;55283;51.466;5.478;2022-07-10T02:00:45;2.60;;;1.40;;
68365;SDS011;55283;51.466;5.478;2022-07-10T02:03:11;2.93;;;1.30;;
68365;SDS011;55283;51.466;5.478;2022-07-10T02:05:54;3.60;;;1.50;;
68365;SDS011;55283;51.466;5.478;2022-07-10T02:08:20;3.77;;;1.43;;
68365;SDS011;55283;51.466;5.478;2022-07-10T02:10:45;3.10;;;1.30;;
68365;SDS011;55283;51.466;5.478;2022-07-10T02:13:11;3.73;;;1.50;;
68365;SDS011;55283;51.466;5.478;2022-07-10T02:15:39;3.55;;;1.42;;
68365;SDS011;55283;51.466;5.478;2022-07-10T02:18:06;3.30;;;1.50;;
68365;SDS011;55283;51.466;5.478;2022-07-10T02:20:31;2.63;;;1.43;;
68365;SDS011;55283;51.466;5.478;2022-07-10T02:22:58;2.92;;;1.48;;
68365;SDS011;55283;51.466;5.478;2022-07-10T02:25:24;4.28;;;1.50;;
68365;SDS011;55283;51.466;5.478;2022-07-10T02:27:49;1.67;;;1.30;;
68365;SDS011;55283;51.466;5.478;2022-07-10T02:30:14;2.70;;;1.60;;
68365;SDS011;55283;51.466;5.478;2022-07-10T02:32:40;4.23;;;1.60;;
68365;SDS011;55283;51.466;5.478;2022-07-10T02:35:05;3.60;;;1.50;;
68365;SDS011;55283;51.466;5.478;2022-07-10T02:37:31;3.30;;;1.60;;
68365;SDS011;55283;51.466;5.478;2022-07-10T02:39:56;2.90;;;1.50;;
68365;SDS011;55283;51.466;5.478;2022-07-10T02:42:22;1.97;;;1.30;;
68365;SDS011;55283;51.466;5.478;2022-07-10T02:44:47;3.63;;;1.60;;
68365;SDS011;55283;51.466;5.478;2022-07-10T02:47:12;1.97;;;1.40;;
68365;SDS011;55283;51.466;5.478;2022-07-10T02:49:38;2.87;;;1.60;;
68365;SDS011;55283;51.466;5.478;2022-07-10T02:52:03;3.33;;;1.63;;
68365;SDS011;55283;51.466;5.478;2022-07-10T02:54:29;3.20;;;1.30;;
68365;SDS011;55283;51.466;5.478;2022-07-10T02:56:55;1.93;;;1.53;;
68365;SDS011;55283;51.466;5.478;2022-07-10T02:59:20;3.83;;;1.57;;
68365;SDS011;55283;51.466;5.478;2022-07-10T03:01:46;4.93;;;1.80;;
68365;SDS011;55283;51.466;5.478;2022-07-10T03:04:11;3.65;;;1.67;;
68365;SDS011;55283;51.466;5.478;2022-07-10T03:06:36;3.77;;;1.40;;
68365;SDS011;55283;51.466;5.478;2022-07-10T03:09:02;3.63;;;1.40;;
68365;SDS011;55283;51.466;5.478;2022-07-10T03:11:27;2.43;;;1.33;;
68365;SDS011;55283;51.466;5.478;2022-07-10T03:13:53;3.87;;;1.50;;
68365;SDS011;55283;51.466;5.478;2022-07-10T03:16:18;3.20;;;1.70;;
68365;SDS011;55283;51.466;5.478;2022-07-10T03:18:43;2.60;;;1.37;;
68365;SDS011;55283;51.466;5.478;2022-07-10T03:21:10;3.35;;;1.45;;
68365;SDS011;55283;51.466;5.478;2022-07-10T03:23:36;2.10;;;1.40;;
68365;SDS011;55283;51.466;5.478;2022-07-10T03:26:01;2.67;;;1.50;;
68365;SDS011;55283;51.466;5.478;2022-07-10T03:28:26;2.53;;;1.40;;
68365;SDS011;55283;51.466;5.478;2022-07-10T03:30:52;2.47;;;1.50;;
68365;SDS011;55283;51.466;5.478;2022-07-10T03:33:17;3.97;;;1.50;;
68365;SDS011;55283;51.466;5.478;2022-07-10T03:35:43;2.30;;;1.30;;
68365;SDS011;55283;51.466;5.478;2022-07-10T03:38:08;3.92;;;1.60;;
68365;SDS011;55283;51.466;5.478;2022-07-10T03:40:33;2.60;;;1.77;;
68365;SDS011;55283;51.466;5.478;2022-07-10T03:42:59;3.03;;;1.50;;
68365;SDS011;55283;51.466;5.478;2022-07-10T03:45:24;2.90;;;1.50;;
68365;SDS011;55283;51.466;5.478;2022-07-10T03:47:50;3.87;;;1.50;;
68365;SDS011;55283;51.466;5.478;2022-07-10T03:50:15;3.08;;;1.55;;
68365;SDS011;55283;51.466;5.478;2022-07-10T03:52:41;1.90;;;1.20;;
68365;SDS011;55283;51.466;5.478;2022-07-10T03:55:06;3.77;;;1.60;;
68365;SDS011;55283;51.466;5.478;2022-07-10T03:57:32;3.37;;;1.50;;
68365;SDS011;55283;51.466;5.478;2022-07-10T04:00:16;2.33;;;1.40;;
68365;SDS011;55283;51.466;5.478;2022-07-10T04:02:41;3.73;;;1.73;;
68365;SDS011;55283;51.466;5.478;2022-07-10T04:05:07;2.87;;;1.40;;
68365;SDS011;55283;51.466;5.478;2022-07-10T04:07:34;2.47;;;1.70;;
68365;SDS011;55283;51.466;5.478;2022-07-10T04:10:00;2.83;;;1.60;;
68365;SDS011;55283;51.466;5.478;2022-07-10T04:12:26;3.07;;;1.40;;
68365;SDS011;55283;51.466;5.478;2022-07-10T04:14:51;3.90;;;1.75;;
68365;SDS011;55283;51.466;5.478;2022-07-10T04:17:17;2.57;;;1.47;;
68365;SDS011;55283;51.466;5.478;2022-07-10T04:19:43;3.67;;;1.60;;
68365;SDS011;55283;51.466;5.478;2022-07-10T04:22:09;3.93;;;1.43;;
68365;SDS011;55283;51.466;5.478;2022-07-10T04:24:34;3.88;;;1.58;;
68365;SDS011;55283;51.466;5.478;2022-07-10T04:27:00;3.60;;;1.77;;
68365;SDS011;55283;51.466;5.478;2022-07-10T04:29:26;3.43;;;1.50;;
68365;SDS011;55283;51.466;5.478;2022-07-10T04:31:52;3.63;;;1.60;;
68365;SDS011;55283;51.466;5.478;2022-07-10T04:34:17;2.27;;;1.60;;
68365;SDS011;55283;51.466;5.478;2022-07-10T04:36:42;3.10;;;1.73;;
68365;SDS011;55283;51.466;5.478;2022-07-10T04:39:08;3.63;;;1.50;;
68365;SDS011;55283;51.466;5.478;2022-07-10T04:41:33;2.33;;;1.60;;
68365;SDS011;55283;51.466;5.478;2022-07-10T04:43:58;4.93;;;1.57;;
68365;SDS011;55283;51.466;5.478;2022-07-10T04:46:24;2.27;;;1.33;;
68365;SDS011;55283;51.466;5.478;2022-07-10T04:48:49;3.80;;;1.50;;
68365;SDS011;55283;51.466;5.478;2022-07-10T04:51:15;3.47;;;1.50;;
68365;SDS011;55283;51.466;5.478;2022-07-10T04:53:41;3.10;;;1.40;;
68365;SDS011;55283;51.466;5.478;2022-07-10T04:56:06;3.50;;;1.70;;
68365;SDS011;55283;51.466;5.478;2022-07-10T04:58:32;2.50;;;1.40;;
68365;SDS011;55283;51.466;5.478;2022-07-10T05:00:57;2.72;;;1.50;;
68365;SDS011;55283;51.466;5.478;2022-07-10T05:03:23;4.50;;;1.60;;
68365;SDS011;55283;51.466;5.478;2022-07-10T05:05:48;2.10;;;1.27;;
68365;SDS011;55283;51.466;5.478;2022-07-10T05:08:13;3.07;;;1.40;;
68365;SDS011;55283;51.466;5.478;2022-07-10T05:10:39;2.70;;;1.53;;
68365;SDS011;55283;51.466;5.478;2022-07-10T05:13:05;3.30;;;1.30;;
68365;SDS011;55283;51.466;5.478;2022-07-10T05:15:31;3.70;;;1.43;;
68365;SDS011;55283;51.466;5.478;2022-07-10T05:17:56;4.80;;;1.40;;
68365;SDS011;55283;51.466;5.478;2022-07-10T05:20:22;2.30;;;1.40;;
68365;SDS011;55283;51.466;5.478;2022-07-10T05:22:47;4.30;;;1.60;;
68365;SDS011;55283;51.466;5.478;2022-07-10T05:25:13;1.40;;;1.30;;
68365;SDS011;55283;51.466;5.478;2022-07-10T05:27:38;9.18;;;1.67;;
68365;SDS011;55283;51.466;5.478;2022-07-10T05:30:03;4.60;;;1.50;;
68365;SDS011;55283;51.466;5.478;2022-07-10T05:32:29;5.30;;;1.40;;
68365;SDS011;55283;51.466;5.478;2022-07-10T05:34:57;4.20;;;1.33;;
68365;SDS011;55283;51.466;5.478;2022-07-10T05:37:23;5.78;;;1.70;;
68365;SDS011;55283;51.466;5.478;2022-07-10T05:39:49;6.80;;;1.60;;
68365;SDS011;55283;51.466;5.478;2022-07-10T05:42:14;4.63;;;1.45;;
68365;SDS011;55283;51.466;5.478;2022-07-10T05:44:40;4.63;;;1.60;;
68365;SDS011;55283;51.466;5.478;2022-07-10T05:47:05;4.90;;;1.60;;
68365;SDS011;55283;51.466;5.478;2022-07-10T05:49:31;4.35;;;1.52;;
68365;SDS011;55283;51.466;5.478;2022-07-10T05:51:57;3.27;;;1.50;;
68365;SDS011;55283;51.466;5.478;2022-07-10T05:54:23;4.93;;;1.53;;
68365;SDS011;55283;51.466;5.478;2022-07-10T05:56:48;2.50;;;1.33;;
68365;SDS011;55283;51.466;5.478;2022-07-10T05:59:13;6.20;;;1.60;;
68365;SDS011;55283;51.466;5.478;2022-07-10T06:01:39;2.87;;;1.50;;
68365;SDS011;55283;51.466;5.478;2022-07-10T06:04:05;4.95;;;1.30;;
68365;SDS011;55283;51.466;5.478;2022-07-10T06:06:31;2.63;;;1.47;;
68365;SDS011;55283;51.466;5.478;2022-07-10T06:08:56;3.10;;;1.30;;
68365;SDS011;55283;51.466;5.478;2022-07-10T06:11:23;4.00;;;1.60;;
68365;SDS011;55283;51.466;5.478;2022-07-10T06:13:49;5.47;;;1.35;;
68365;SDS011;55283;51.466;5.478;2022-07-10T06:16:14;4.37;;;1.50;;
68365;SDS011;55283;51.466;5.478;2022-07-10T06:18:40;3.60;;;1.20;;
68365;SDS011;55283;51.466;5.478;2022-07-10T06:21:05;3.80;;;1.37;;
68365;SDS011;55283;51.466;5.478;2022-07-10T06:23:30;3.67;;;1.40;;
68365;SDS011;55283;51.466;5.478;2022-07-10T06:25:56;3.60;;;1.27;;
68365;SDS011;55283;51.466;5.478;2022-07-10T06:28:21;3.47;;;1.40;;
68365;SDS011;55283;51.466;5.478;2022-07-10T06:30:47;5.67;;;1.60;;
68365;SDS011;55283;51.466;5.478;2022-07-10T06:33:12;4.67;;;1.60;;
68365;SDS011;55283;51.466;5.478;2022-07-10T06:35:38;8.77;;;1.50;;
68365;SDS011;55283;51.466;5.478;2022-07-10T06:38:03;9.18;;;1.40;;
68365;SDS011;55283;51.466;5.478;2022-07-10T06:40:29;5.07;;;1.37;;
68365;SDS011;55283;51.466;5.478;2022-07-10T06:42:55;7.63;;;1.50;;
68365;SDS011;55283;51.466;5.478;2022-07-10T06:45:20;5.20;;;1.47;;
68365;SDS011;55283;51.466;5.478;2022-07-10T06:47:46;4.17;;;1.50;;
68365;SDS011;55283;51.466;5.478;2022-07-10T06:50:27;9.85;;;1.33;;
68365;SDS011;55283;51.466;5.478;2022-07-10T06:52:58;8.18;;;1.75;;
68365;SDS011;55283;51.466;5.478;2022-07-10T06:55:24;5.60;;;1.70;;
68365;SDS011;55283;51.466;5.478;2022-07-10T06:57:50;5.70;;;1.42;;
68365;SDS011;55283;51.466;5.478;2022-07-10T07:00:16;5.95;;;1.65;;
68365;SDS011;55283;51.466;5.478;2022-07-10T07:02:42;5.47;;;1.50;;
68365;SDS011;55283;51.466;5.478;2022-07-10T07:05:08;6.88;;;1.73;;
68365;SDS011;55283;51.466;5.478;2022-07-10T07:07:34;6.90;;;1.50;;
68365;SDS011;55283;51.466;5.478;2022-07-10T07:10:00;4.53;;;1.52;;
68365;SDS011;55283;51.466;5.478;2022-07-10T07:12:26;5.45;;;1.50;;
68365;SDS011;55283;51.466;5.478;2022-07-10T07:14:51;6.53;;;1.80;;
68365;SDS011;55283;51.466;5.478;2022-07-10T07:17:16;4.17;;;1.60;;
68365;SDS011;55283;51.466;5.478;2022-07-10T07:19:50;6.05;;;1.63;;
68365;SDS011;55283;51.466;5.478;2022-07-10T07:22:35;6.03;;;1.60;;
68365;SDS011;55283;51.466;5.478;2022-07-10T07:25:19;5.45;;;1.70;;
68365;SDS011;55283;51.466;5.478;2022-07-10T07:27:45;5.47;;;1.70;;
68365;SDS011;55283;51.466;5.478;2022-07-10T07:30:11;4.18;;;1.60;;
68365;SDS011;55283;51.466;5.478;2022-07-10T07:32:40;4.23;;;1.53;;
68365;SDS011;55283;51.466;5.478;2022-07-10T07:35:06;5.60;;;1.67;;
68365;SDS011;55283;51.466;5.478;2022-07-10T07:37:39;4.10;;;1.58;;
68365;SDS011;55283;51.466;5.478;2022-07-10T07:40:09;5.33;;;1.57;;
68365;SDS011;55283;51.466;5.478;2022-07-10T07:42:36;5.00;;;1.70;;
68365;SDS011;55283;51.466;5.478;2022-07-10T07:45:03;5.70;;;1.80;;
68365;SDS011;55283;51.466;5.478;2022-07-10T07:47:29;5.10;;;1.40;;
68365;SDS011;55283;51.466;5.478;2022-07-10T07:49:55;6.28;;;2.10;;
68365;SDS011;55283;51.466;5.478;2022-07-10T07:52:20;6.77;;;1.80;;
68365;SDS011;55283;51.466;5.478;2022-07-10T07:54:47;7.72;;;1.70;;
68365;SDS011;55283;51.466;5.478;2022-07-10T07:57:13;5.28;;;1.67;;
68365;SDS011;55283;51.466;5.478;2022-07-10T07:59:39;4.43;;;1.50;;
68365;SDS011;55283;51.466;5.478;2022-07-10T08:02:05;5.70;;;1.80;;
68365;SDS011;55283;51.466;5.478;2022-07-10T08:04:31;6.03;;;1.83;;
68365;SDS011;55283;51.466;5.478;2022-07-10T08:06:56;5.13;;;1.57;;
68365;SDS011;55283;51.466;5.478;2022-07-10T08:09:22;6.10;;;1.77;;
68365;SDS011;55283;51.466;5.478;2022-07-10T08:11:47;5.33;;;1.93;;
68365;SDS011;55283;51.466;5.478;2022-07-10T08:14:13;5.83;;;2.00;;
68365;SDS011;55283;51.466;5.478;2022-07-10T08:16:39;6.18;;;1.70;;
68365;SDS011;55283;51.466;5.478;2022-07-10T08:19:05;7.38;;;1.85;;
68365;SDS011;55283;51.466;5.478;2022-07-10T08:21:30;4.30;;;1.70;;
68365;SDS011;55283;51.466;5.478;2022-07-10T08:23:56;5.18;;;1.63;;
68365;SDS011;55283;51.466;5.478;2022-07-10T08:26:22;6.53;;;1.90;;
68365;SDS011;55283;51.466;5.478;2022-07-10T08:28:47;4.00;;;1.73;;
68365;SDS011;55283;51.466;5.478;2022-07-10T08:31:13;4.97;;;1.80;;
68365;SDS011;55283;51.466;5.478;2022-07-10T08:33:38;9.40;;;2.20;;
68365;SDS011;55283;51.466;5.478;2022-07-10T08:36:04;6.37;;;2.10;;
68365;SDS011;55283;51.466;5.478;2022-07-10T08:38:29;5.67;;;2.23;;
68365;SDS011;55283;51.466;5.478;2022-07-10T08:40:55;6.13;;;1.98;;
68365;SDS011;55283;51.466;5.478;2022-07-10T08:43:24;5.60;;;2.00;;
68365;SDS011;55283;51.466;5.478;2022-07-10T08:45:50;6.37;;;2.30;;
68365;SDS011;55283;51.466;5.478;2022-07-10T08:48:19;5.13;;;2.00;;
68365;SDS011;55283;51.466;5.478;2022-07-10T08:50:47;4.13;;;1.90;;
68365;SDS011;55283;51.466;5.478;2022-07-10T08:53:16;5.63;;;2.20;;
68365;SDS011;55283;51.466;5.478;2022-07-10T08:55:46;7.60;;;2.30;;
68365;SDS011;55283;51.466;5.478;2022-07-10T08:58:14;5.60;;;2.10;;
68365;SDS011;55283;51.466;5.478;2022-07-10T09:00:40;7.25;;;2.10;;
68365;SDS011;55283;51.466;5.478;2022-07-10T09:03:07;6.50;;;2.13;;
68365;SDS011;55283;51.466;5.478;2022-07-10T09:05:33;6.03;;;2.20;;
68365;SDS011;55283;51.466;5.478;2022-07-10T09:07:58;7.03;;;2.40;;
68365;SDS011;55283;51.466;5.478;2022-07-10T09:10:24;8.67;;;2.37;;
68365;SDS011;55283;51.466;5.478;2022-07-10T09:12:55;6.53;;;2.10;;
68365;SDS011;55283;51.466;5.478;2022-07-10T09:15:22;5.22;;;2.10;;
68365;SDS011;55283;51.466;5.478;2022-07-10T09:17:53;5.65;;;2.20;;
68365;SDS011;55283;51.466;5.478;2022-07-10T09:22:50;6.68;;;2.13;;
68365;SDS011;55283;51.466;5.478;2022-07-10T09:25:15;4.97;;;2.10;;
68365;SDS011;55283;51.466;5.478;2022-07-10T09:27:51;4.57;;;1.83;;
68365;SDS011;55283;51.466;5.478;2022-07-10T09:30:31;4.60;;;2.10;;
68365;SDS011;55283;51.466;5.478;2022-07-10T09:41:12;4.67;;;2.00;;
68365;SDS011;55283;51.466;5.478;2022-07-10T09:43:42;5.07;;;2.13;;
68365;SDS011;55283;51.466;5.478;2022-07-10T09:46:22;7.25;;;2.10;;
68365;SDS011;55283;51.466;5.478;2022-07-10T09:48:59;6.30;;;2.03;;
68365;SDS011;55283;51.466;5.478;2022-07-10T09:51:32;5.00;;;2.00;;
68365;SDS011;55283;51.466;5.478;2022-07-10T09:54:03;5.13;;;1.77;;
68365;SDS011;55283;51.466;5.478;2022-07-10T09:56:49;4.23;;;2.00;;
68365;SDS011;55283;51.466;5.478;2022-07-10T09:59:19;4.68;;;1.70;;
68365;SDS011;55283;51.466;5.478;2022-07-10T10:04:15;3.95;;;1.73;;
68365;SDS011;55283;51.466;5.478;2022-07-10T10:06:43;5.93;;;2.00;;
68365;SDS011;55283;51.466;5.478;2022-07-10T10:09:19;4.85;;;1.80;;
68365;SDS011;55283;51.466;5.478;2022-07-10T10:11:49;3.55;;;1.70;;
68365;SDS011;55283;51.466;5.478;2022-07-10T10:14:36;5.67;;;2.07;;
68365;SDS011;55283;51.466;5.478;2022-07-10T10:17:04;4.30;;;1.83;;
68365;SDS011;55283;51.466;5.478;2022-07-10T10:19:31;5.10;;;1.88;;
68365;SDS011;55283;51.466;5.478;2022-07-10T10:22:17;3.80;;;1.60;;
68365;SDS011;55283;51.466;5.478;2022-07-10T10:24:43;4.10;;;1.70;;
68365;SDS011;55283;51.466;5.478;2022-07-10T10:27:10;4.63;;;2.00;;
68365;SDS011;55283;51.466;5.478;2022-07-10T10:29:37;5.28;;;1.95;;
68365;SDS011;55283;51.466;5.478;2022-07-10T10:32:03;4.03;;;1.70;;
68365;SDS011;55283;51.466;5.478;2022-07-10T10:34:42;3.25;;;1.70;;
68365;SDS011;55283;51.466;5.478;2022-07-10T10:39:55;5.07;;;1.70;;
68365;SDS011;55283;51.466;5.478;2022-07-10T10:42:41;4.70;;;2.00;;
68365;SDS011;55283;51.466;5.478;2022-07-10T10:48:16;4.20;;;2.00;;
68365;SDS011;55283;51.466;5.478;2022-07-10T10:53:24;5.93;;;1.95;;
68365;SDS011;55283;51.466;5.478;2022-07-10T10:58:25;7.57;;;2.10;;
68365;SDS011;55283;51.466;5.478;2022-07-10T11:01:05;3.88;;;2.00;;
68365;SDS011;55283;51.466;5.478;2022-07-10T11:09:27;3.65;;;1.80;;
68365;SDS011;55283;51.466;5.478;2022-07-10T11:12:05;4.22;;;1.80;;
68365;SDS011;55283;51.466;5.478;2022-07-10T11:14:36;3.73;;;1.90;;
68365;SDS011;55283;51.466;5.478;2022-07-10T11:17:03;3.90;;;1.70;;
68365;SDS011;55283;51.466;5.478;2022-07-10T11:19:30;5.68;;;1.77;;
68365;SDS011;55283;51.466;5.478;2022-07-10T11:22:07;3.72;;;1.70;;
68365;SDS011;55283;51.466;5.478;2022-07-10T11:24:40;4.60;;;1.67;;
68365;SDS011;55283;51.466;5.478;2022-07-10T11:27:27;3.78;;;1.60;;
68365;SDS011;55283;51.466;5.478;2022-07-10T11:29:58;5.05;;;2.00;;
68365;SDS011;55283;51.466;5.478;2022-07-10T11:32:24;3.90;;;1.80;;
68365;SDS011;55283;51.466;5.478;2022-07-10T11:34:50;4.20;;;1.70;;
68365;SDS011;55283;51.466;5.478;2022-07-10T11:37:16;3.23;;;1.67;;
68365;SDS011;55283;51.466;5.478;2022-07-10T11:39:42;3.88;;;1.80;;
68365;SDS011;55283;51.466;5.478;2022-07-10T11:42:07;2.73;;;1.53;;
68365;SDS011;55283;51.466;5.478;2022-07-10T11:44:33;5.70;;;1.50;;
68365;SDS011;55283;51.466;5.478;2022-07-10T11:46:59;4.47;;;1.60;;
68365;SDS011;55283;51.466;5.478;2022-07-10T11:49:25;5.05;;;1.88;;
68365;SDS011;55283;51.466;5.478;2022-07-10T11:51:52;3.60;;;1.60;;
68365;SDS011;55283;51.466;5.478;2022-07-10T11:54:19;3.87;;;1.50;;
68365;SDS011;55283;51.466;5.478;2022-07-10T11:56:48;3.45;;;1.60;;
68365;SDS011;55283;51.466;5.478;2022-07-10T11:59:16;5.13;;;1.90;;
68365;SDS011;55283;51.466;5.478;2022-07-10T12:01:49;2.42;;;1.40;;
68365;SDS011;55283;51.466;5.478;2022-07-10T12:04:17;4.32;;;1.80;;
68365;SDS011;55283;51.466;5.478;2022-07-10T12:06:45;3.03;;;1.55;;
68365;SDS011;55283;51.466;5.478;2022-07-10T12:09:16;3.20;;;1.67;;
68365;SDS011;55283;51.466;5.478;2022-07-10T12:11:44;3.22;;;1.80;;
68365;SDS011;55283;51.466;5.478;2022-07-10T12:14:23;3.85;;;1.77;;
68365;SDS011;55283;51.466;5.478;2022-07-10T12:16:50;5.20;;;1.40;;
68365;SDS011;55283;51.466;5.478;2022-07-10T12:19:23;3.03;;;1.60;;
68365;SDS011;55283;51.466;5.478;2022-07-10T12:21:55;3.03;;;1.40;;
68365;SDS011;55283;51.466;5.478;2022-07-10T12:24:22;2.60;;;1.33;;
68365;SDS011;55283;51.466;5.478;2022-07-10T12:26:49;3.40;;;1.50;;
68365;SDS011;55283;51.466;5.478;2022-07-10T12:29:24;4.47;;;1.50;;
68365;SDS011;55283;51.466;5.478;2022-07-10T12:31:51;3.90;;;1.67;;
68365;SDS011;55283;51.466;5.478;2022-07-10T12:34:32;2.38;;;1.40;;
68365;SDS011;55283;51.466;5.478;2022-07-10T12:37:09;4.83;;;1.50;;
68365;SDS011;55283;51.466;5.478;2022-07-10T12:39:36;2.33;;;1.40;;
68365;SDS011;55283;51.466;5.478;2022-07-10T12:42:04;2.65;;;1.40;;
68365;SDS011;55283;51.466;5.478;2022-07-10T12:47:03;4.57;;;1.50;;
68365;SDS011;55283;51.466;5.478;2022-07-10T12:52:30;2.92;;;1.50;;
68365;SDS011;55283;51.466;5.478;2022-07-10T12:55:04;4.33;;;1.60;;
68365;SDS011;55283;51.466;5.478;2022-07-10T13:00:22;3.08;;;1.42;;
68365;SDS011;55283;51.466;5.478;2022-07-10T13:03:02;3.00;;;1.40;;
68365;SDS011;55283;51.466;5.478;2022-07-10T13:08:11;3.77;;;1.40;;
68365;SDS011;55283;51.466;5.478;2022-07-10T13:10:53;3.85;;;1.48;;
68365;SDS011;55283;51.466;5.478;2022-07-10T13:13:20;4.95;;;1.45;;
68365;SDS011;55283;51.466;5.478;2022-07-10T13:15:46;2.47;;;1.13;;
68365;SDS011;55283;51.466;5.478;2022-07-10T13:18:16;2.58;;;1.10;;
68365;SDS011;55283;51.466;5.478;2022-07-10T13:20:43;2.05;;;1.30;;
68365;SDS011;55283;51.466;5.478;2022-07-10T13:23:19;1.90;;;1.30;;
68365;SDS011;55283;51.466;5.478;2022-07-10T13:25:50;2.87;;;1.43;;
68365;SDS011;55283;51.466;5.478;2022-07-10T13:28:16;2.83;;;1.25;;
68365;SDS011;55283;51.466;5.478;2022-07-10T13:30:42;2.03;;;1.20;;
68365;SDS011;55283;51.466;5.478;2022-07-10T13:33:08;3.45;;;1.60;;
68365;SDS011;55283;51.466;5.478;2022-07-10T13:35:34;4.90;;;1.27;;
68365;SDS011;55283;51.466;5.478;2022-07-10T13:38:00;3.00;;;1.20;;
68365;SDS011;55283;51.466;5.478;2022-07-10T13:40:29;3.58;;;1.20;;
68365;SDS011;55283;51.466;5.478;2022-07-10T13:42:56;2.15;;;1.10;;
68365;SDS011;55283;51.466;5.478;2022-07-10T13:45:23;1.80;;;1.13;;
68365;SDS011;55283;51.466;5.478;2022-07-10T13:47:55;3.28;;;1.45;;
68365;SDS011;55283;51.466;5.478;2022-07-10T13:50:21;1.40;;;1.10;;
68365;SDS011;55283;51.466;5.478;2022-07-10T13:52:47;2.33;;;1.10;;
68365;SDS011;55283;51.466;5.478;2022-07-10T13:55:13;3.05;;;1.38;;
68365;SDS011;55283;51.466;5.478;2022-07-10T13:57:38;2.27;;;1.20;;
68365;SDS011;55283;51.466;5.478;2022-07-10T14:00:04;2.75;;;1.27;;
68365;SDS011;55283;51.466;5.478;2022-07-10T14:02:30;2.40;;;1.20;;
68365;SDS011;55283;51.466;5.478;2022-07-10T14:04:56;2.27;;;1.20;;
68365;SDS011;55283;51.466;5.478;2022-07-10T14:07:21;2.40;;;1.20;;
68365;SDS011;55283;51.466;5.478;2022-07-10T14:09:46;1.17;;;1.07;;
68365;SDS011;55283;51.466;5.478;2022-07-10T14:12:12;2.57;;;1.20;;
68365;SDS011;55283;51.466;5.478;2022-07-10T14:14:37;2.08;;;1.10;;
68365;SDS011;55283;51.466;5.478;2022-07-10T14:17:03;1.67;;;1.20;;
68365;SDS011;55283;51.466;5.478;2022-07-10T14:19:28;1.38;;;1.13;;
68365;SDS011;55283;51.466;5.478;2022-07-10T14:21:54;2.13;;;1.07;;
68365;SDS011;55283;51.466;5.478;2022-07-10T14:24:19;2.43;;;1.13;;
68365;SDS011;55283;51.466;5.478;2022-07-10T14:26:45;2.50;;;1.30;;
68365;SDS011;55283;51.466;5.478;2022-07-10T14:29:14;2.22;;;1.10;;
68365;SDS011;55283;51.466;5.478;2022-07-10T14:31:39;1.97;;;1.10;;
68365;SDS011;55283;51.466;5.478;2022-07-10T14:34:05;1.77;;;1.10;;
68365;SDS011;55283;51.466;5.478;2022-07-10T14:36:31;2.70;;;1.20;;
68365;SDS011;55283;51.466;5.478;2022-07-10T14:38:57;5.32;;;1.20;;
68365;SDS011;55283;51.466;5.478;2022-07-10T14:41:23;3.05;;;1.20;;
68365;SDS011;55283;51.466;5.478;2022-07-10T14:43:52;3.47;;;1.23;;
68365;SDS011;55283;51.466;5.478;2022-07-10T14:46:17;8.73;;;2.45;;
68365;SDS011;55283;51.466;5.478;2022-07-10T14:48:43;23.07;;;5.27;;
68365;SDS011;55283;51.466;5.478;2022-07-10T14:51:08;21.50;;;6.47;;
68365;SDS011;55283;51.466;5.478;2022-07-10T14:53:34;19.97;;;6.37;;
68365;SDS011;55283;51.466;5.478;2022-07-10T14:56:04;21.20;;;6.43;;
68365;SDS011;55283;51.466;5.478;2022-07-10T14:58:33;16.85;;;4.75;;
68365;SDS011;55283;51.466;5.478;2022-07-10T15:00:59;18.17;;;5.53;;
68365;SDS011;55283;51.466;5.478;2022-07-10T15:03:25;17.77;;;5.72;;
68365;SDS011;55283;51.466;5.478;2022-07-10T15:05:51;13.07;;;4.72;;
68365;SDS011;55283;51.466;5.478;2022-07-10T15:08:21;12.57;;;4.10;;
68365;SDS011;55283;51.466;5.478;2022-07-10T15:10:47;15.05;;;5.30;;
68365;SDS011;55283;51.466;5.478;2022-07-10T15:13:13;13.15;;;4.68;;
68365;SDS011;55283;51.466;5.478;2022-07-10T15:15:39;12.63;;;4.10;;
68365;SDS011;55283;51.466;5.478;2022-07-10T15:18:05;13.70;;;4.27;;
68365;SDS011;55283;51.466;5.478;2022-07-10T15:20:31;10.73;;;3.75;;
68365;SDS011;55283;51.466;5.478;2022-07-10T15:22:56;9.80;;;3.83;;
68365;SDS011;55283;51.466;5.478;2022-07-10T15:25:21;10.97;;;3.70;;
68365;SDS011;55283;51.466;5.478;2022-07-10T15:27:47;9.23;;;3.80;;
68365;SDS011;55283;51.466;5.478;2022-07-10T15:30:12;10.20;;;3.45;;